Weather at Gimpo International Airport

Public forecast

Using degrees Celsius for public forecast. Weather courtesy of forecast.io.

Current aviation weather report (METAR) for Gimpo International Airport

Retrieved 2021/10/19 13:00 UTC (1 hour ago):

RKSS 191300Z 33007KT CAVOK 07/00 Q1021 NOSIG

Aviation forecast (TAF) for Gimpo International Airport

Retrieved 2021/10/19 12:00 UTC (2 hours ago):

TAF RKSS 191100Z 1912/2018 34006KT CAVOK TN03/1921Z TX15/2005Z BECMG 1920/1921 06005KT TEMPO 2000/2002 24006KT BECMG 2002/2003 28006KT BECMG 2015/2016 06005KT